createdAt,value
2022-10-20T00:02:03.678Z,9.30
2022-10-20T00:04:33.602Z,8.47
2022-10-20T00:07:03.274Z,9.56
2022-10-20T00:09:32.360Z,9.31
2022-10-20T00:12:01.214Z,7.30
2022-10-20T00:14:30.652Z,9.48
2022-10-20T00:17:00.814Z,9.68
2022-10-20T00:19:29.798Z,9.70
2022-10-20T00:22:04.471Z,9.67
2022-10-20T00:24:34.119Z,9.80
2022-10-20T00:27:03.621Z,9.82
2022-10-20T00:29:33.158Z,9.63
2022-10-20T00:32:02.111Z,9.79
2022-10-20T00:34:32.769Z,9.72
2022-10-20T00:37:02.351Z,9.81
2022-10-20T00:39:31.897Z,9.42
2022-10-20T00:42:03.142Z,9.67
2022-10-20T00:44:48.872Z,9.59
2022-10-20T00:47:19.334Z,9.44
2022-10-20T00:49:49.946Z,9.67
2022-10-20T00:52:18.087Z,9.67
2022-10-20T00:54:44.207Z,9.73
2022-10-20T00:57:10.352Z,8.94
2022-10-20T00:59:38.315Z,9.03
2022-10-20T01:02:06.955Z,9.13
2022-10-20T01:04:34.118Z,9.35
2022-10-20T01:07:01.132Z,9.02
2022-10-20T01:09:31.267Z,9.33
2022-10-20T01:12:12.757Z,9.14
2022-10-20T01:15:04.883Z,8.88
2022-10-20T01:17:42.126Z,8.68
2022-10-20T01:20:11.186Z,8.85
2022-10-20T01:23:17.902Z,8.88
2022-10-20T01:26:07.625Z,8.69
2022-10-20T01:28:41.683Z,8.66
2022-10-20T01:31:23.541Z,8.84
2022-10-20T01:34:06.415Z,9.00
2022-10-20T01:36:47.034Z,8.41
2022-10-20T01:39:39.757Z,8.56
2022-10-20T01:42:17.456Z,8.77
2022-10-20T01:44:48.976Z,8.63
2022-10-20T01:47:15.616Z,8.72
2022-10-20T01:49:43.177Z,8.73
2022-10-20T01:52:13.099Z,8.77
2022-10-20T01:54:42.778Z,8.84
2022-10-20T01:57:41.291Z,8.93
2022-10-20T02:00:15.840Z,8.51
2022-10-20T02:03:22.242Z,8.91
2022-10-20T02:06:04.271Z,7.79
2022-10-20T02:08:56.859Z,8.35
2022-10-20T02:11:51.537Z,7.41
2022-10-20T02:14:23.108Z,7.72
2022-10-20T02:16:52.584Z,7.86
2022-10-20T02:19:20.966Z,7.81
2022-10-20T02:21:47.890Z,8.32
2022-10-20T02:24:19.345Z,7.74
2022-10-20T02:26:45.385Z,8.12
2022-10-20T02:29:17.367Z,7.49
2022-10-20T02:31:44.590Z,8.04
2022-10-20T02:34:11.609Z,8.36
2022-10-20T02:36:41.334Z,8.50
2022-10-20T02:39:09.830Z,7.67
2022-10-20T02:41:38.982Z,8.34
2022-10-20T02:44:08.586Z,8.56
2022-10-20T02:46:37.888Z,8.08
2022-10-20T02:49:03.908Z,8.24
2022-10-20T02:51:29.917Z,8.34
2022-10-20T02:53:56.057Z,8.16
2022-10-20T02:56:22.540Z,8.13
2022-10-20T02:58:49.723Z,8.07
2022-10-20T03:01:15.836Z,7.72
2022-10-20T03:03:41.897Z,8.19
2022-10-20T03:06:13.089Z,8.33
2022-10-20T03:08:39.695Z,8.00
2022-10-20T03:11:06.006Z,8.34
2022-10-20T03:13:32.034Z,8.32
2022-10-20T03:15:58.638Z,8.35
2022-10-20T03:18:24.659Z,8.23
2022-10-20T03:20:51.833Z,7.93
2022-10-20T03:23:20.135Z,8.06
2022-10-20T03:25:46.933Z,8.07
2022-10-20T03:28:13.001Z,8.17
2022-10-20T03:30:39.281Z,8.35
2022-10-20T03:33:05.519Z,8.17
2022-10-20T03:35:31.542Z,8.24
2022-10-20T03:37:57.583Z,8.26
2022-10-20T03:40:23.660Z,8.14
2022-10-20T03:42:49.699Z,8.09
2022-10-20T03:45:18.494Z,7.66
2022-10-20T03:47:44.825Z,7.77
2022-10-20T03:50:10.957Z,8.17
2022-10-20T03:52:37.211Z,8.29
2022-10-20T03:55:03.780Z,8.12
2022-10-20T03:57:29.789Z,8.08
2022-10-20T03:59:55.799Z,8.11
2022-10-20T04:02:30.643Z,8.10
2022-10-20T04:04:56.713Z,8.15
2022-10-20T04:07:22.753Z,7.71
2022-10-20T04:09:48.806Z,7.89
2022-10-20T04:12:14.825Z,7.94
2022-10-20T04:14:40.831Z,8.02
2022-10-20T04:17:06.932Z,7.73
2022-10-20T04:19:32.957Z,7.67
2022-10-20T04:21:58.986Z,7.72
2022-10-20T04:24:24.997Z,7.64
2022-10-20T04:29:21.936Z,7.78
2022-10-20T04:31:49.202Z,7.19
2022-10-20T04:34:15.415Z,7.81
2022-10-20T04:36:41.442Z,7.93
2022-10-20T04:39:08.324Z,7.96
2022-10-20T04:41:34.371Z,7.89
2022-10-20T04:44:00.396Z,7.68
2022-10-20T04:46:26.397Z,7.83
2022-10-20T04:48:53.017Z,7.73
2022-10-20T04:51:19.778Z,7.73
2022-10-20T04:53:46.136Z,7.37
2022-10-20T04:56:17.704Z,7.86
2022-10-20T04:58:51.585Z,7.30
2022-10-20T05:01:19.110Z,7.77
2022-10-20T05:03:45.213Z,7.84
2022-10-20T05:06:21.581Z,7.80
2022-10-20T05:08:50.897Z,7.86
2022-10-20T05:11:17.987Z,7.87
2022-10-20T05:13:44.085Z,7.87
2022-10-20T05:16:10.882Z,7.15
2022-10-20T05:18:37.515Z,7.59
2022-10-20T05:21:16.077Z,7.72
2022-10-20T05:23:42.824Z,7.72
2022-10-20T05:26:14.830Z,7.78
2022-10-20T05:28:46.196Z,7.78
2022-10-20T05:31:12.675Z,7.15
2022-10-20T05:33:39.172Z,7.35
2022-10-20T05:36:13.851Z,7.78
2022-10-20T05:38:41.267Z,7.80
2022-10-20T05:41:09.422Z,7.30
2022-10-20T05:43:35.486Z,7.71
2022-10-20T05:46:01.897Z,6.84
2022-10-20T05:48:27.989Z,7.62
2022-10-20T05:50:54.019Z,7.63
2022-10-20T05:53:20.152Z,5.86
2022-10-20T05:55:46.179Z,6.98
2022-10-20T05:58:12.193Z,7.15
2022-10-20T06:00:41.508Z,7.54
2022-10-20T06:03:08.114Z,7.66
2022-10-20T06:05:34.160Z,7.55
2022-10-20T06:08:00.206Z,7.54
2022-10-20T06:10:26.229Z,7.66
2022-10-20T06:12:52.249Z,7.54
2022-10-20T06:15:18.244Z,7.66
2022-10-20T06:17:46.207Z,7.39
2022-10-20T06:20:12.220Z,7.54
2022-10-20T06:22:38.654Z,7.61
2022-10-20T06:25:05.714Z,7.67
2022-10-20T06:27:31.809Z,7.79
2022-10-20T06:29:57.796Z,7.72
2022-10-20T06:32:23.788Z,7.76
2022-10-20T06:34:49.860Z,7.59
2022-10-20T06:37:15.877Z,7.58
2022-10-20T06:39:41.901Z,5.99
2022-10-20T06:42:11.065Z,7.55
2022-10-20T06:44:38.239Z,6.83
2022-10-20T06:47:06.891Z,7.76
2022-10-20T06:49:32.921Z,7.96
2022-10-20T06:51:59.021Z,8.05
2022-10-20T06:54:25.107Z,8.12
2022-10-20T06:56:51.149Z,8.13
2022-10-20T06:59:17.680Z,8.18
2022-10-20T07:01:43.923Z,7.53
2022-10-20T07:04:13.680Z,8.12
2022-10-20T07:06:42.242Z,8.17
2022-10-20T07:09:13.128Z,8.13
2022-10-20T07:11:39.344Z,7.99
2022-10-20T07:14:05.497Z,8.26
2022-10-20T07:16:33.650Z,8.38
2022-10-20T07:19:00.730Z,8.52
2022-10-20T07:21:32.360Z,8.51
2022-10-20T07:24:03.281Z,8.57
2022-10-20T07:26:31.573Z,8.54
2022-10-20T07:28:59.474Z,8.67
2022-10-20T07:31:40.870Z,8.77
2022-10-20T07:34:26.713Z,8.28
2022-10-20T07:36:54.552Z,8.72
2022-10-20T07:39:20.710Z,8.38
2022-10-20T07:41:47.335Z,7.87
2022-10-20T07:44:13.960Z,8.46
2022-10-20T07:46:40.026Z,9.14
2022-10-20T07:49:38.200Z,9.32
2022-10-20T07:51:52.119Z,9.09
2022-10-20T07:54:18.167Z,8.74
2022-10-20T07:56:45.476Z,9.40
2022-10-20T07:59:11.747Z,9.37
2022-10-20T08:01:37.925Z,9.43
2022-10-20T08:04:04.354Z,9.64
2022-10-20T08:06:30.435Z,9.77
2022-10-20T08:08:56.489Z,9.77
2022-10-20T08:11:22.658Z,9.78
2022-10-20T08:13:48.690Z,10.01
2022-10-20T08:16:17.939Z,9.90
2022-10-20T08:21:23.860Z,10.07
2022-10-20T08:23:50.337Z,9.97
2022-10-20T08:26:19.782Z,8.41
2022-10-20T08:28:46.912Z,9.72
2022-10-20T08:31:13.067Z,10.20
2022-10-20T08:33:40.309Z,9.64
2022-10-20T08:36:08.719Z,10.28
2022-10-20T08:38:35.505Z,10.28
2022-10-20T08:41:02.494Z,10.58
2022-10-20T08:43:30.471Z,10.22
2022-10-20T08:45:56.952Z,8.75
2022-10-20T08:48:28.582Z,10.47
2022-10-20T08:50:54.842Z,9.71
2022-10-20T08:53:23.102Z,10.41
2022-10-20T08:55:49.638Z,10.38
2022-10-20T08:58:21.615Z,10.39
2022-10-20T09:00:54.531Z,10.53
2022-10-20T09:03:23.412Z,10.77
2022-10-20T09:05:56.571Z,10.26
2022-10-20T09:08:26.017Z,11.12
2022-10-20T09:10:53.410Z,11.21
2022-10-20T09:13:20.540Z,3.82
2022-10-20T09:15:48.355Z,10.63
2022-10-20T09:18:15.087Z,10.24
2022-10-20T09:20:55.250Z,11.03
2022-10-20T09:23:40.758Z,9.43
2022-10-20T09:26:24.804Z,9.73
2022-10-20T09:29:14.652Z,9.80
2022-10-20T09:31:53.681Z,11.57
2022-10-20T09:34:26.427Z,12.31
2022-10-20T09:37:08.222Z,12.24
2022-10-20T09:39:47.716Z,12.13
2022-10-20T09:42:28.308Z,12.15
2022-10-20T09:44:58.256Z,12.20
2022-10-20T09:47:26.249Z,12.22
2022-10-20T09:50:05.247Z,11.45
2022-10-20T09:52:35.082Z,12.67
2022-10-20T09:55:03.787Z,12.11
2022-10-20T09:57:30.464Z,12.71
2022-10-20T10:00:04.536Z,12.94
2022-10-20T10:02:34.954Z,12.66
2022-10-20T10:05:19.377Z,10.78
2022-10-20T10:07:56.614Z,12.24
2022-10-20T10:10:29.121Z,12.37
2022-10-20T10:12:57.417Z,12.45
2022-10-20T10:15:29.790Z,12.46
2022-10-20T10:17:56.471Z,12.52
2022-10-20T10:20:22.443Z,12.62
2022-10-20T10:22:48.488Z,11.90
2022-10-20T10:25:21.743Z,12.78
2022-10-20T10:28:00.080Z,13.12
2022-10-20T10:30:34.426Z,13.00
2022-10-20T10:33:00.976Z,12.85
2022-10-20T10:35:26.970Z,13.07
2022-10-20T10:37:53.575Z,12.81
2022-10-20T10:40:41.666Z,12.65
2022-10-20T10:43:16.822Z,13.08
2022-10-20T10:45:48.981Z,12.87
2022-10-20T10:48:45.663Z,11.20
2022-10-20T10:51:39.891Z,11.33
2022-10-20T10:54:12.262Z,13.09
2022-10-20T10:56:50.501Z,13.22
2022-10-20T10:59:28.073Z,13.27
2022-10-20T11:02:31.379Z,13.19
2022-10-20T11:05:30.702Z,13.27
2022-10-20T11:08:15.536Z,13.07
2022-10-20T11:11:00.665Z,12.98
2022-10-20T11:13:42.767Z,12.27
2022-10-20T11:16:18.160Z,13.04
2022-10-20T11:19:19.804Z,13.10
2022-10-20T11:22:14.694Z,13.40
2022-10-20T11:25:27.765Z,13.45
2022-10-20T11:27:54.786Z,13.52
2022-10-20T11:30:21.560Z,13.53
2022-10-20T11:32:59.263Z,13.60
2022-10-20T11:35:50.265Z,13.64
2022-10-20T11:38:19.250Z,13.88
2022-10-20T11:40:54.154Z,14.03
2022-10-20T11:43:24.549Z,14.25
2022-10-20T11:46:07.959Z,13.94
2022-10-20T11:48:46.162Z,13.88
2022-10-20T11:51:30.597Z,13.77
2022-10-20T11:53:56.623Z,13.85
2022-10-20T11:56:41.743Z,13.85
2022-10-20T11:59:19.994Z,13.90
2022-10-20T12:02:31.955Z,13.87
2022-10-20T12:05:09.958Z,13.85
2022-10-20T12:07:44.875Z,14.00
2022-10-20T12:10:48.354Z,13.98
2022-10-20T12:13:14.342Z,14.07
2022-10-20T12:15:50.935Z,14.01
2022-10-20T12:18:26.625Z,14.07
2022-10-20T12:20:55.668Z,14.00
2022-10-20T12:23:48.450Z,13.96
2022-10-20T12:26:29.534Z,13.93
2022-10-20T12:28:56.351Z,13.88
2022-10-20T12:31:22.471Z,13.78
2022-10-20T12:33:52.643Z,13.81
2022-10-20T12:36:18.679Z,13.72
2022-10-20T12:38:47.997Z,13.64
2022-10-20T12:41:28.755Z,13.65
2022-10-20T12:44:15.240Z,13.64
2022-10-20T12:46:43.387Z,13.47
2022-10-20T12:49:21.112Z,12.47
2022-10-20T12:51:50.462Z,12.09
2022-10-20T12:54:24.961Z,13.02
2022-10-20T12:56:51.780Z,13.31
2022-10-20T12:59:26.950Z,13.20
2022-10-20T13:02:08.405Z,13.31
2022-10-20T13:04:59.812Z,13.31
2022-10-20T13:07:47.647Z,13.35
2022-10-20T13:10:37.125Z,13.20
2022-10-20T13:13:03.121Z,13.36
2022-10-20T13:15:38.257Z,13.48
2022-10-20T13:18:10.349Z,13.36
2022-10-20T13:20:47.159Z,13.34
2022-10-20T13:23:18.455Z,13.40
2022-10-20T13:25:47.668Z,13.37
2022-10-20T13:28:13.910Z,13.42
2022-10-20T13:30:52.118Z,13.29
2022-10-20T13:33:34.486Z,13.27
2022-10-20T13:36:16.845Z,13.32
2022-10-20T13:38:53.357Z,13.32
2022-10-20T13:41:38.622Z,11.44
2022-10-20T13:44:31.386Z,13.28
2022-10-20T13:47:45.545Z,13.40
2022-10-20T13:50:14.114Z,12.70
2022-10-20T13:52:42.997Z,13.28
2022-10-20T13:55:16.361Z,13.42
2022-10-20T13:57:54.920Z,13.34
2022-10-20T14:00:31.811Z,13.29
2022-10-20T14:03:00.835Z,13.43
2022-10-20T14:05:36.972Z,12.22
2022-10-20T14:08:07.681Z,11.92
2022-10-20T14:10:53.282Z,11.94
2022-10-20T14:13:22.841Z,13.27
2022-10-20T14:15:56.515Z,13.26
2022-10-20T14:18:28.722Z,13.45
2022-10-20T14:20:54.716Z,13.33
2022-10-20T14:23:22.009Z,13.40
2022-10-20T14:25:49.608Z,13.35
2022-10-20T14:28:18.545Z,13.35
2022-10-20T14:30:49.906Z,11.68
2022-10-20T14:33:16.356Z,13.37
2022-10-20T14:35:49.770Z,13.30
2022-10-20T14:38:23.676Z,13.31
2022-10-20T14:40:55.215Z,13.40
2022-10-20T14:43:34.507Z,12.82
2022-10-20T14:46:02.151Z,12.51
2022-10-20T14:48:33.706Z,13.12
2022-10-20T14:50:59.747Z,13.46
2022-10-20T14:53:31.753Z,11.14
2022-10-20T14:56:01.442Z,12.83
2022-10-20T14:58:29.576Z,13.29
2022-10-20T15:01:15.225Z,13.41
2022-10-20T15:03:41.370Z,13.50
2022-10-20T15:06:13.731Z,13.00
2022-10-20T15:08:52.922Z,13.38
2022-10-20T15:11:23.612Z,12.93
2022-10-20T15:13:54.851Z,13.40
2022-10-20T15:16:32.478Z,13.23
2022-10-20T15:19:31.139Z,13.26
2022-10-20T15:22:02.187Z,13.37
2022-10-20T15:24:28.594Z,13.28
2022-10-20T15:26:55.713Z,12.46
2022-10-20T15:29:21.780Z,13.23
2022-10-20T15:31:47.848Z,12.32
2022-10-20T15:34:13.941Z,13.29
2022-10-20T15:36:42.123Z,13.36
2022-10-20T15:39:08.627Z,13.29
2022-10-20T15:41:36.035Z,13.29
2022-10-20T15:44:10.055Z,13.14
2022-10-20T15:46:36.063Z,13.13
2022-10-20T15:49:02.068Z,13.14
2022-10-20T15:51:33.168Z,12.16
2022-10-20T15:53:59.771Z,12.39
2022-10-20T15:56:25.834Z,12.38
2022-10-20T15:58:54.313Z,12.92
2022-10-20T16:01:20.893Z,12.05
2022-10-20T16:03:47.743Z,11.87
2022-10-20T16:06:15.398Z,12.83
2022-10-20T16:08:42.826Z,12.77
2022-10-20T16:11:09.823Z,12.80
2022-10-20T16:13:37.743Z,11.88
2022-10-20T16:16:04.843Z,11.47
2022-10-20T16:18:31.040Z,11.25
2022-10-20T16:20:57.591Z,12.71
2022-10-20T16:23:24.012Z,12.64
2022-10-20T16:25:50.140Z,12.68
2022-10-20T16:28:16.147Z,12.76
2022-10-20T16:30:42.167Z,12.64
2022-10-20T16:33:08.197Z,12.69
2022-10-20T16:35:34.352Z,10.88
2022-10-20T16:38:00.525Z,12.72
2022-10-20T16:40:26.569Z,12.69
2022-10-20T16:42:52.598Z,12.80
2022-10-20T16:45:18.693Z,12.82
2022-10-20T16:47:44.837Z,12.73
2022-10-20T16:50:10.888Z,12.78
2022-10-20T16:52:36.931Z,12.71
2022-10-20T16:55:03.188Z,12.64
2022-10-20T16:57:32.757Z,12.59
2022-10-20T16:59:59.717Z,12.31
2022-10-20T17:02:25.781Z,12.65
2022-10-20T17:04:51.821Z,12.64
2022-10-20T17:07:17.879Z,12.18
2022-10-20T17:09:44.270Z,11.34
2022-10-20T17:12:10.424Z,12.77
2022-10-20T17:14:37.385Z,12.79
2022-10-20T17:17:03.431Z,12.70
2022-10-20T17:19:29.460Z,12.71
2022-10-20T17:21:56.361Z,12.50
2022-10-20T17:24:23.680Z,12.45
2022-10-20T17:26:49.711Z,12.56
2022-10-20T17:29:15.796Z,12.19
2022-10-20T17:31:41.858Z,10.07
2022-10-20T17:34:08.325Z,12.60
2022-10-20T17:36:34.370Z,12.59
2022-10-20T17:39:04.825Z,12.68
2022-10-20T17:41:31.411Z,11.84
2022-10-20T17:44:01.476Z,12.24
2022-10-20T17:46:27.927Z,11.72
2022-10-20T17:48:54.025Z,12.84
2022-10-20T17:51:22.510Z,12.82
2022-10-20T17:53:50.444Z,12.90
2022-10-20T17:56:20.591Z,12.85
2022-10-20T17:58:47.867Z,12.87
2022-10-20T18:01:14.774Z,12.80
2022-10-20T18:03:41.551Z,12.89
2022-10-20T18:06:09.815Z,12.87
2022-10-20T18:08:35.861Z,12.81
2022-10-20T18:11:01.971Z,12.57
2022-10-20T18:13:28.000Z,12.73
2022-10-20T18:15:54.007Z,12.01
2022-10-20T18:18:20.012Z,12.44
2022-10-20T18:20:56.264Z,12.66
2022-10-20T18:23:22.460Z,12.19
2022-10-20T18:25:48.546Z,12.37
2022-10-20T18:28:18.269Z,12.55
2022-10-20T18:30:44.312Z,11.53
2022-10-20T18:33:10.377Z,12.54
2022-10-20T18:35:37.007Z,12.52
2022-10-20T18:38:03.375Z,12.66
2022-10-20T18:40:29.781Z,12.72
2022-10-20T18:42:55.788Z,12.68
2022-10-20T18:45:23.842Z,12.62
2022-10-20T18:47:52.167Z,12.55
2022-10-20T18:50:18.578Z,12.56
2022-10-20T18:52:44.584Z,12.30
2022-10-20T18:55:10.730Z,12.50
2022-10-20T18:57:39.738Z,12.16
2022-10-20T19:00:07.648Z,12.18
2022-10-20T19:02:34.758Z,12.55
2022-10-20T19:05:04.808Z,12.53
2022-10-20T19:07:33.674Z,12.72
2022-10-20T19:09:59.698Z,12.77
2022-10-20T19:12:25.760Z,12.20
2022-10-20T19:14:51.853Z,12.86
2022-10-20T19:17:17.901Z,11.24
2022-10-20T19:19:45.767Z,12.69
2022-10-20T19:22:11.872Z,12.83
2022-10-20T19:24:39.819Z,12.82
2022-10-20T19:27:25.786Z,11.87
2022-10-20T19:29:51.971Z,12.57
2022-10-20T19:32:18.000Z,12.32
2022-10-20T19:34:44.541Z,12.56
2022-10-20T19:37:10.632Z,12.63
2022-10-20T19:39:39.025Z,12.72
2022-10-20T19:42:05.993Z,12.74
2022-10-20T19:44:32.672Z,11.26
2022-10-20T19:46:58.844Z,11.15
2022-10-20T19:49:25.890Z,12.67
2022-10-20T19:51:52.141Z,12.32
2022-10-20T19:54:18.534Z,12.67
2022-10-20T19:56:44.600Z,12.86
2022-10-20T19:59:10.858Z,12.82
2022-10-20T20:01:37.184Z,12.81
2022-10-20T20:04:04.129Z,12.60
2022-10-20T20:06:30.240Z,12.85
2022-10-20T20:08:58.700Z,12.89
2022-10-20T20:11:26.742Z,12.81
2022-10-20T20:13:54.995Z,12.71
2022-10-20T20:16:21.099Z,12.93
2022-10-20T20:18:47.550Z,12.81
2022-10-20T20:21:14.447Z,11.24
2022-10-20T20:23:54.702Z,11.45
2022-10-20T20:26:24.539Z,12.69
2022-10-20T20:28:52.187Z,12.68
2022-10-20T20:31:18.200Z,12.28
2022-10-20T20:33:44.314Z,11.90
2022-10-20T20:36:10.335Z,12.73
2022-10-20T20:38:38.170Z,12.71
2022-10-20T20:41:10.320Z,12.73
2022-10-20T20:43:36.623Z,12.71
2022-10-20T20:46:04.382Z,12.46
2022-10-20T20:48:30.530Z,12.71
2022-10-20T20:50:57.579Z,12.67
2022-10-20T20:53:23.772Z,12.40
2022-10-20T20:55:59.666Z,12.65
2022-10-20T20:58:27.331Z,12.77
2022-10-20T21:01:08.118Z,12.76
2022-10-20T21:03:34.927Z,12.62
2022-10-20T21:06:08.129Z,12.71
2022-10-20T21:08:35.983Z,12.91
2022-10-20T21:11:10.553Z,12.94
2022-10-20T21:13:36.929Z,12.73
2022-10-20T21:16:14.763Z,12.75
2022-10-20T21:18:42.899Z,11.93
2022-10-20T21:21:17.450Z,11.73
2022-10-20T21:23:43.924Z,12.88
2022-10-20T21:26:11.476Z,12.89
2022-10-20T21:28:37.610Z,11.50
2022-10-20T21:31:05.516Z,12.89
2022-10-20T21:33:31.837Z,12.87
2022-10-20T21:36:02.371Z,12.94
2022-10-20T21:38:29.883Z,11.25
2022-10-20T21:41:01.620Z,12.60
2022-10-20T21:43:29.317Z,12.89
2022-10-20T21:45:55.399Z,12.52
2022-10-20T21:48:21.386Z,12.76
2022-10-20T21:50:47.371Z,12.83
2022-10-20T21:53:13.375Z,12.76
2022-10-20T21:55:39.372Z,12.86
2022-10-20T21:58:05.405Z,12.65
2022-10-20T22:00:31.449Z,12.65
2022-10-20T22:02:57.492Z,12.71
2022-10-20T22:05:23.586Z,12.70
2022-10-20T22:07:49.584Z,12.75
2022-10-20T22:10:15.612Z,12.81
2022-10-20T22:12:41.638Z,12.82
2022-10-20T22:15:08.039Z,12.78
2022-10-20T22:17:34.216Z,12.85
2022-10-20T22:20:00.372Z,12.87
2022-10-20T22:22:30.075Z,12.78
2022-10-20T22:24:56.143Z,12.63
2022-10-20T22:27:31.460Z,12.69
2022-10-20T22:30:08.351Z,12.70
2022-10-20T22:32:34.456Z,10.97
2022-10-20T22:35:00.541Z,12.64
2022-10-20T22:37:26.560Z,12.75
2022-10-20T22:39:52.571Z,12.60
2022-10-20T22:42:21.290Z,12.68
2022-10-20T22:44:50.034Z,12.50
2022-10-20T22:47:16.280Z,12.51
2022-10-20T22:49:42.317Z,12.59
2022-10-20T22:52:08.328Z,12.59
2022-10-20T22:54:34.370Z,12.62
2022-10-20T22:57:00.391Z,12.43
2022-10-20T22:59:26.569Z,12.67
2022-10-20T23:01:52.577Z,11.05
2022-10-20T23:04:18.596Z,11.86
2022-10-20T23:06:44.628Z,12.79
2022-10-20T23:09:10.791Z,12.83
2022-10-20T23:11:36.894Z,12.10
2022-10-20T23:14:02.960Z,12.88
2022-10-20T23:16:28.979Z,12.82
2022-10-20T23:18:55.055Z,12.87
2022-10-20T23:21:21.104Z,12.23
2022-10-20T23:23:47.252Z,12.79
2022-10-20T23:26:13.459Z,12.72
2022-10-20T23:28:39.469Z,12.72
2022-10-20T23:31:12.720Z,12.67
2022-10-20T23:33:39.731Z,12.67
2022-10-20T23:36:06.210Z,12.56
2022-10-20T23:38:32.252Z,12.52
2022-10-20T23:40:58.314Z,12.62
2022-10-20T23:43:24.636Z,12.65
2022-10-20T23:45:50.736Z,12.72
2022-10-20T23:48:16.785Z,12.65
2022-10-20T23:50:43.426Z,12.62
2022-10-20T23:53:09.995Z,12.56
2022-10-20T23:55:36.124Z,12.60
2022-10-20T23:58:02.212Z,12.67
